sensor_id;sensor_type;location;lat;lon;timestamp;P1;durP1;ratioP1;P2;durP2;ratioP2
17872;SDS011;36318;42.620;23.338;2022-09-25T00:00:19;3.37;;;3.07;;
17872;SDS011;36318;42.620;23.338;2022-09-25T00:02:45;4.03;;;3.57;;
17872;SDS011;36318;42.620;23.338;2022-09-25T00:05:13;4.67;;;3.60;;
17872;SDS011;36318;42.620;23.338;2022-09-25T00:07:40;4.43;;;3.60;;
17872;SDS011;36318;42.620;23.338;2022-09-25T00:10:06;5.13;;;3.43;;
17872;SDS011;36318;42.620;23.338;2022-09-25T00:12:33;4.00;;;3.60;;
17872;SDS011;36318;42.620;23.338;2022-09-25T00:15:00;5.13;;;3.93;;
17872;SDS011;36318;42.620;23.338;2022-09-25T00:17:26;6.23;;;3.70;;
17872;SDS011;36318;42.620;23.338;2022-09-25T00:19:53;4.47;;;4.03;;
17872;SDS011;36318;42.620;23.338;2022-09-25T00:22:21;4.40;;;4.00;;
17872;SDS011;36318;42.620;23.338;2022-09-25T00:24:49;7.73;;;5.03;;
17872;SDS011;36318;42.620;23.338;2022-09-25T00:27:15;4.70;;;4.17;;
17872;SDS011;36318;42.620;23.338;2022-09-25T00:29:42;6.97;;;5.00;;
17872;SDS011;36318;42.620;23.338;2022-09-25T00:32:09;6.37;;;4.77;;
17872;SDS011;36318;42.620;23.338;2022-09-25T00:34:36;5.17;;;4.27;;
17872;SDS011;36318;42.620;23.338;2022-09-25T00:37:03;7.37;;;5.37;;
17872;SDS011;36318;42.620;23.338;2022-09-25T00:39:32;7.13;;;4.90;;
17872;SDS011;36318;42.620;23.338;2022-09-25T00:41:58;10.20;;;5.33;;
17872;SDS011;36318;42.620;23.338;2022-09-25T00:47:10;7.93;;;5.00;;
17872;SDS011;36318;42.620;23.338;2022-09-25T00:49:38;6.00;;;5.27;;
17872;SDS011;36318;42.620;23.338;2022-09-25T00:52:06;6.63;;;5.30;;
17872;SDS011;36318;42.620;23.338;2022-09-25T00:54:35;6.27;;;4.83;;
17872;SDS011;36318;42.620;23.338;2022-09-25T00:57:06;5.20;;;4.53;;
17872;SDS011;36318;42.620;23.338;2022-09-25T00:59:35;7.13;;;4.43;;
17872;SDS011;36318;42.620;23.338;2022-09-25T01:02:03;4.87;;;4.37;;
17872;SDS011;36318;42.620;23.338;2022-09-25T01:04:31;5.13;;;4.20;;
17872;SDS011;36318;42.620;23.338;2022-09-25T01:06:59;4.80;;;4.00;;
17872;SDS011;36318;42.620;23.338;2022-09-25T01:09:26;5.77;;;4.53;;
17872;SDS011;36318;42.620;23.338;2022-09-25T01:11:54;6.43;;;5.10;;
17872;SDS011;36318;42.620;23.338;2022-09-25T01:14:21;6.20;;;5.07;;
17872;SDS011;36318;42.620;23.338;2022-09-25T01:16:49;5.07;;;4.57;;
17872;SDS011;36318;42.620;23.338;2022-09-25T01:19:21;6.30;;;4.60;;
17872;SDS011;36318;42.620;23.338;2022-09-25T01:21:52;5.53;;;4.27;;
17872;SDS011;36318;42.620;23.338;2022-09-25T01:24:27;4.40;;;4.00;;
17872;SDS011;36318;42.620;23.338;2022-09-25T01:29:49;4.93;;;4.30;;
17872;SDS011;36318;42.620;23.338;2022-09-25T01:32:17;4.57;;;4.00;;
17872;SDS011;36318;42.620;23.338;2022-09-25T01:34:47;4.00;;;3.60;;
17872;SDS011;36318;42.620;23.338;2022-09-25T01:37:16;4.70;;;4.07;;
17872;SDS011;36318;42.620;23.338;2022-09-25T01:39:48;6.87;;;3.47;;
17872;SDS011;36318;42.620;23.338;2022-09-25T01:42:17;5.37;;;4.27;;
17872;SDS011;36318;42.620;23.338;2022-09-25T01:44:50;6.97;;;4.20;;
17872;SDS011;36318;42.620;23.338;2022-09-25T01:47:19;5.83;;;4.10;;
17872;SDS011;36318;42.620;23.338;2022-09-25T01:49:47;4.50;;;4.10;;
17872;SDS011;36318;42.620;23.338;2022-09-25T01:52:16;4.23;;;3.87;;
17872;SDS011;36318;42.620;23.338;2022-09-25T01:54:43;4.00;;;3.43;;
17872;SDS011;36318;42.620;23.338;2022-09-25T01:57:11;4.13;;;3.73;;
17872;SDS011;36318;42.620;23.338;2022-09-25T01:59:42;4.70;;;4.30;;
17872;SDS011;36318;42.620;23.338;2022-09-25T02:02:12;5.60;;;4.00;;
17872;SDS011;36318;42.620;23.338;2022-09-25T02:04:41;4.17;;;3.77;;
17872;SDS011;36318;42.620;23.338;2022-09-25T02:07:11;5.47;;;4.30;;
17872;SDS011;36318;42.620;23.338;2022-09-25T02:09:40;4.87;;;4.47;;
17872;SDS011;36318;42.620;23.338;2022-09-25T02:12:10;6.07;;;5.47;;
17872;SDS011;36318;42.620;23.338;2022-09-25T02:14:39;7.13;;;5.60;;
17872;SDS011;36318;42.620;23.338;2022-09-25T02:17:11;5.87;;;5.30;;
17872;SDS011;36318;42.620;23.338;2022-09-25T02:20:00;5.67;;;5.13;;
17872;SDS011;36318;42.620;23.338;2022-09-25T02:22:43;5.53;;;4.70;;
17872;SDS011;36318;42.620;23.338;2022-09-25T02:25:13;7.07;;;5.40;;
17872;SDS011;36318;42.620;23.338;2022-09-25T02:27:42;6.87;;;5.93;;
17872;SDS011;36318;42.620;23.338;2022-09-25T02:30:09;9.27;;;6.43;;
17872;SDS011;36318;42.620;23.338;2022-09-25T02:32:37;9.37;;;7.20;;
17872;SDS011;36318;42.620;23.338;2022-09-25T02:35:04;9.77;;;7.20;;
17872;SDS011;36318;42.620;23.338;2022-09-25T02:37:30;12.37;;;7.47;;
17872;SDS011;36318;42.620;23.338;2022-09-25T02:39:58;9.33;;;6.63;;
17872;SDS011;36318;42.620;23.338;2022-09-25T02:42:28;9.37;;;7.30;;
17872;SDS011;36318;42.620;23.338;2022-09-25T02:45:09;7.83;;;6.67;;
17872;SDS011;36318;42.620;23.338;2022-09-25T02:47:41;6.83;;;6.00;;
17872;SDS011;36318;42.620;23.338;2022-09-25T02:50:12;7.20;;;6.13;;
17872;SDS011;36318;42.620;23.338;2022-09-25T02:52:42;6.03;;;5.43;;
17872;SDS011;36318;42.620;23.338;2022-09-25T02:55:11;6.70;;;6.10;;
17872;SDS011;36318;42.620;23.338;2022-09-25T02:57:40;6.90;;;5.77;;
17872;SDS011;36318;42.620;23.338;2022-09-25T03:00:10;5.83;;;5.17;;
17872;SDS011;36318;42.620;23.338;2022-09-25T03:02:38;6.50;;;5.73;;
17872;SDS011;36318;42.620;23.338;2022-09-25T03:05:08;6.30;;;5.13;;
17872;SDS011;36318;42.620;23.338;2022-09-25T03:07:36;7.10;;;5.90;;
17872;SDS011;36318;42.620;23.338;2022-09-25T03:10:17;8.43;;;7.47;;
17872;SDS011;36318;42.620;23.338;2022-09-25T03:12:44;7.17;;;5.37;;
17872;SDS011;36318;42.620;23.338;2022-09-25T03:15:11;6.27;;;5.67;;
17872;SDS011;36318;42.620;23.338;2022-09-25T03:17:37;6.40;;;4.87;;
17872;SDS011;36318;42.620;23.338;2022-09-25T03:20:04;6.20;;;5.40;;
17872;SDS011;36318;42.620;23.338;2022-09-25T03:22:32;6.90;;;6.17;;
17872;SDS011;36318;42.620;23.338;2022-09-25T03:24:59;6.70;;;5.47;;
17872;SDS011;36318;42.620;23.338;2022-09-25T03:27:25;13.97;;;6.47;;
17872;SDS011;36318;42.620;23.338;2022-09-25T03:29:54;8.57;;;6.30;;
17872;SDS011;36318;42.620;23.338;2022-09-25T03:32:20;10.33;;;7.63;;
17872;SDS011;36318;42.620;23.338;2022-09-25T03:34:47;19.10;;;10.80;;
17872;SDS011;36318;42.620;23.338;2022-09-25T03:37:13;22.13;;;11.53;;
17872;SDS011;36318;42.620;23.338;2022-09-25T03:39:41;18.57;;;11.77;;
17872;SDS011;36318;42.620;23.338;2022-09-25T03:42:08;24.63;;;13.87;;
17872;SDS011;36318;42.620;23.338;2022-09-25T03:44:34;18.27;;;12.00;;
17872;SDS011;36318;42.620;23.338;2022-09-25T03:47:01;17.60;;;12.03;;
17872;SDS011;36318;42.620;23.338;2022-09-25T03:49:27;13.93;;;8.83;;
17872;SDS011;36318;42.620;23.338;2022-09-25T03:51:54;11.63;;;8.03;;
17872;SDS011;36318;42.620;23.338;2022-09-25T03:54:20;8.80;;;7.07;;
17872;SDS011;36318;42.620;23.338;2022-09-25T03:56:48;11.70;;;6.73;;
17872;SDS011;36318;42.620;23.338;2022-09-25T03:59:15;7.73;;;5.53;;
17872;SDS011;36318;42.620;23.338;2022-09-25T04:01:42;6.80;;;5.50;;
17872;SDS011;36318;42.620;23.338;2022-09-25T04:04:09;6.83;;;5.20;;
17872;SDS011;36318;42.620;23.338;2022-09-25T04:06:35;5.77;;;5.17;;
17872;SDS011;36318;42.620;23.338;2022-09-25T04:09:02;6.13;;;5.23;;
17872;SDS011;36318;42.620;23.338;2022-09-25T04:11:29;7.50;;;5.17;;
17872;SDS011;36318;42.620;23.338;2022-09-25T04:13:57;6.33;;;5.70;;
17872;SDS011;36318;42.620;23.338;2022-09-25T04:16:24;6.07;;;5.57;;
17872;SDS011;36318;42.620;23.338;2022-09-25T04:18:53;7.73;;;6.07;;
17872;SDS011;36318;42.620;23.338;2022-09-25T04:21:20;9.40;;;6.70;;
17872;SDS011;36318;42.620;23.338;2022-09-25T04:23:46;7.33;;;6.50;;
17872;SDS011;36318;42.620;23.338;2022-09-25T04:26:27;7.37;;;5.97;;
17872;SDS011;36318;42.620;23.338;2022-09-25T04:28:53;7.60;;;6.80;;
17872;SDS011;36318;42.620;23.338;2022-09-25T04:31:21;7.73;;;6.93;;
17872;SDS011;36318;42.620;23.338;2022-09-25T04:33:48;7.80;;;6.40;;
17872;SDS011;36318;42.620;23.338;2022-09-25T04:36:13;8.47;;;7.03;;
17872;SDS011;36318;42.620;23.338;2022-09-25T04:38:40;10.33;;;7.23;;
17872;SDS011;36318;42.620;23.338;2022-09-25T04:41:06;8.13;;;6.73;;
17872;SDS011;36318;42.620;23.338;2022-09-25T04:43:33;8.07;;;6.47;;
17872;SDS011;36318;42.620;23.338;2022-09-25T04:46:00;8.97;;;6.13;;
17872;SDS011;36318;42.620;23.338;2022-09-25T04:48:29;9.30;;;6.90;;
17872;SDS011;36318;42.620;23.338;2022-09-25T04:50:55;9.17;;;7.17;;
17872;SDS011;36318;42.620;23.338;2022-09-25T04:53:22;8.13;;;6.90;;
17872;SDS011;36318;42.620;23.338;2022-09-25T04:55:50;10.50;;;7.40;;
17872;SDS011;36318;42.620;23.338;2022-09-25T04:58:18;14.20;;;7.77;;
17872;SDS011;36318;42.620;23.338;2022-09-25T05:00:45;9.60;;;7.60;;
17872;SDS011;36318;42.620;23.338;2022-09-25T05:03:11;12.33;;;7.87;;
17872;SDS011;36318;42.620;23.338;2022-09-25T05:05:39;8.37;;;7.10;;
17872;SDS011;36318;42.620;23.338;2022-09-25T05:08:06;8.73;;;6.73;;
17872;SDS011;36318;42.620;23.338;2022-09-25T05:10:32;9.30;;;7.67;;
17872;SDS011;36318;42.620;23.338;2022-09-25T05:13:00;13.87;;;10.03;;
17872;SDS011;36318;42.620;23.338;2022-09-25T05:15:27;15.00;;;9.20;;
17872;SDS011;36318;42.620;23.338;2022-09-25T05:18:00;11.33;;;8.53;;
17872;SDS011;36318;42.620;23.338;2022-09-25T05:20:27;7.90;;;7.10;;
17872;SDS011;36318;42.620;23.338;2022-09-25T05:22:55;9.47;;;7.50;;
17872;SDS011;36318;42.620;23.338;2022-09-25T05:25:22;7.57;;;5.97;;
17872;SDS011;36318;42.620;23.338;2022-09-25T05:27:49;12.10;;;7.87;;
17872;SDS011;36318;42.620;23.338;2022-09-25T05:30:16;11.83;;;8.70;;
17872;SDS011;36318;42.620;23.338;2022-09-25T05:32:45;11.10;;;10.00;;
17872;SDS011;36318;42.620;23.338;2022-09-25T05:35:13;12.90;;;9.97;;
17872;SDS011;36318;42.620;23.338;2022-09-25T05:37:40;10.53;;;8.87;;
17872;SDS011;36318;42.620;23.338;2022-09-25T05:40:08;12.47;;;9.67;;
17872;SDS011;36318;42.620;23.338;2022-09-25T05:42:35;12.70;;;9.80;;
17872;SDS011;36318;42.620;23.338;2022-09-25T05:45:02;11.90;;;9.13;;
17872;SDS011;36318;42.620;23.338;2022-09-25T05:47:28;11.87;;;8.10;;
17872;SDS011;36318;42.620;23.338;2022-09-25T05:49:55;14.23;;;8.17;;
17872;SDS011;36318;42.620;23.338;2022-09-25T05:52:22;11.17;;;7.97;;
17872;SDS011;36318;42.620;23.338;2022-09-25T05:54:48;8.40;;;7.33;;
17872;SDS011;36318;42.620;23.338;2022-09-25T05:57:16;9.07;;;7.73;;
17872;SDS011;36318;42.620;23.338;2022-09-25T05:59:42;11.47;;;8.73;;
17872;SDS011;36318;42.620;23.338;2022-09-25T06:02:09;11.20;;;8.40;;
17872;SDS011;36318;42.620;23.338;2022-09-25T06:04:36;10.53;;;7.93;;
17872;SDS011;36318;42.620;23.338;2022-09-25T06:07:02;10.80;;;8.50;;
17872;SDS011;36318;42.620;23.338;2022-09-25T06:09:29;11.67;;;8.90;;
17872;SDS011;36318;42.620;23.338;2022-09-25T06:11:56;10.20;;;8.87;;
17872;SDS011;36318;42.620;23.338;2022-09-25T06:14:24;13.27;;;8.97;;
17872;SDS011;36318;42.620;23.338;2022-09-25T06:16:50;9.27;;;8.23;;
17872;SDS011;36318;42.620;23.338;2022-09-25T06:19:18;10.53;;;9.00;;
17872;SDS011;36318;42.620;23.338;2022-09-25T06:21:47;11.13;;;8.87;;
17872;SDS011;36318;42.620;23.338;2022-09-25T06:24:13;12.60;;;8.13;;
17872;SDS011;36318;42.620;23.338;2022-09-25T06:26:40;10.27;;;7.60;;
17872;SDS011;36318;42.620;23.338;2022-09-25T06:29:07;9.00;;;7.57;;
17872;SDS011;36318;42.620;23.338;2022-09-25T06:31:35;11.07;;;6.63;;
17872;SDS011;36318;42.620;23.338;2022-09-25T06:34:03;9.87;;;5.80;;
17872;SDS011;36318;42.620;23.338;2022-09-25T06:36:30;6.50;;;5.83;;
17872;SDS011;36318;42.620;23.338;2022-09-25T06:38:56;10.80;;;5.93;;
17872;SDS011;36318;42.620;23.338;2022-09-25T06:41:23;5.97;;;4.80;;
17872;SDS011;36318;42.620;23.338;2022-09-25T06:43:50;7.20;;;5.53;;
17872;SDS011;36318;42.620;23.338;2022-09-25T06:46:16;7.07;;;5.13;;
17872;SDS011;36318;42.620;23.338;2022-09-25T06:48:46;7.47;;;5.07;;
17872;SDS011;36318;42.620;23.338;2022-09-25T06:51:15;5.43;;;4.90;;
17872;SDS011;36318;42.620;23.338;2022-09-25T06:53:42;8.97;;;4.93;;
17872;SDS011;36318;42.620;23.338;2022-09-25T06:56:09;6.13;;;4.80;;
17872;SDS011;36318;42.620;23.338;2022-09-25T06:58:36;7.40;;;5.07;;
17872;SDS011;36318;42.620;23.338;2022-09-25T07:01:02;10.03;;;4.90;;
17872;SDS011;36318;42.620;23.338;2022-09-25T07:03:31;6.73;;;4.20;;
17872;SDS011;36318;42.620;23.338;2022-09-25T07:06:11;9.30;;;5.53;;
17872;SDS011;36318;42.620;23.338;2022-09-25T07:08:38;8.20;;;4.70;;
17872;SDS011;36318;42.620;23.338;2022-09-25T07:11:04;7.40;;;4.13;;
17872;SDS011;36318;42.620;23.338;2022-09-25T07:13:32;6.43;;;4.20;;
17872;SDS011;36318;42.620;23.338;2022-09-25T07:15:59;9.70;;;3.90;;
17872;SDS011;36318;42.620;23.338;2022-09-25T07:18:26;4.73;;;3.60;;
17872;SDS011;36318;42.620;23.338;2022-09-25T07:20:58;8.37;;;3.80;;
17872;SDS011;36318;42.620;23.338;2022-09-25T07:23:26;6.80;;;3.97;;
17872;SDS011;36318;42.620;23.338;2022-09-25T07:25:55;5.70;;;4.00;;
17872;SDS011;36318;42.620;23.338;2022-09-25T07:28:22;5.57;;;4.33;;
17872;SDS011;36318;42.620;23.338;2022-09-25T07:30:48;7.17;;;4.20;;
17872;SDS011;36318;42.620;23.338;2022-09-25T07:33:16;6.43;;;4.67;;
17872;SDS011;36318;42.620;23.338;2022-09-25T07:35:44;6.37;;;4.30;;
17872;SDS011;36318;42.620;23.338;2022-09-25T07:38:10;9.53;;;4.80;;
17872;SDS011;36318;42.620;23.338;2022-09-25T07:40:38;5.23;;;4.30;;
17872;SDS011;36318;42.620;23.338;2022-09-25T07:43:06;15.60;;;4.70;;
17872;SDS011;36318;42.620;23.338;2022-09-25T07:45:32;5.33;;;3.80;;
17872;SDS011;36318;42.620;23.338;2022-09-25T07:48:00;6.90;;;4.13;;
17872;SDS011;36318;42.620;23.338;2022-09-25T07:50:27;5.35;;;4.50;;
17872;SDS011;36318;42.620;23.338;2022-09-25T07:52:53;6.13;;;4.55;;
17872;SDS011;36318;42.620;23.338;2022-09-25T07:55:20;4.78;;;3.80;;
17872;SDS011;36318;42.620;23.338;2022-09-25T07:57:48;4.97;;;3.83;;
17872;SDS011;36318;42.620;23.338;2022-09-25T08:00:16;4.30;;;3.90;;
17872;SDS011;36318;42.620;23.338;2022-09-25T08:02:42;4.40;;;3.90;;
17872;SDS011;36318;42.620;23.338;2022-09-25T08:05:09;6.13;;;4.25;;
17872;SDS011;36318;42.620;23.338;2022-09-25T08:07:36;7.25;;;4.68;;
17872;SDS011;36318;42.620;23.338;2022-09-25T08:10:03;4.50;;;4.10;;
17872;SDS011;36318;42.620;23.338;2022-09-25T08:12:29;7.32;;;4.57;;
17872;SDS011;36318;42.620;23.338;2022-09-25T08:14:57;10.88;;;5.28;;
17872;SDS011;36318;42.620;23.338;2022-09-25T08:17:24;8.40;;;5.00;;
17872;SDS011;36318;42.620;23.338;2022-09-25T08:19:55;6.75;;;5.10;;
17872;SDS011;36318;42.620;23.338;2022-09-25T08:22:22;5.38;;;4.85;;
17872;SDS011;36318;42.620;23.338;2022-09-25T08:24:48;8.13;;;4.72;;
17872;SDS011;36318;42.620;23.338;2022-09-25T08:27:15;11.10;;;4.65;;
17872;SDS011;36318;42.620;23.338;2022-09-25T08:29:42;5.47;;;4.63;;
17872;SDS011;36318;42.620;23.338;2022-09-25T08:32:10;6.68;;;4.25;;
17872;SDS011;36318;42.620;23.338;2022-09-25T08:34:36;8.25;;;4.60;;
17872;SDS011;36318;42.620;23.338;2022-09-25T08:37:03;5.43;;;4.78;;
17872;SDS011;36318;42.620;23.338;2022-09-25T08:39:31;7.65;;;4.72;;
17872;SDS011;36318;42.620;23.338;2022-09-25T08:41:58;7.85;;;4.70;;
17872;SDS011;36318;42.620;23.338;2022-09-25T08:44:25;4.68;;;4.05;;
17872;SDS011;36318;42.620;23.338;2022-09-25T08:46:53;7.50;;;3.53;;
17872;SDS011;36318;42.620;23.338;2022-09-25T08:49:40;8.85;;;3.90;;
17872;SDS011;36318;42.620;23.338;2022-09-25T08:52:10;7.50;;;4.00;;
17872;SDS011;36318;42.620;23.338;2022-09-25T08:54:38;5.28;;;4.78;;
17872;SDS011;36318;42.620;23.338;2022-09-25T08:57:07;5.35;;;3.63;;
17872;SDS011;36318;42.620;23.338;2022-09-25T08:59:36;9.10;;;4.22;;
17872;SDS011;36318;42.620;23.338;2022-09-25T09:02:08;4.47;;;3.75;;
17872;SDS011;36318;42.620;23.338;2022-09-25T09:04:36;5.43;;;3.17;;
17872;SDS011;36318;42.620;23.338;2022-09-25T09:07:06;4.53;;;3.00;;
17872;SDS011;36318;42.620;23.338;2022-09-25T09:09:35;9.82;;;3.88;;
17872;SDS011;36318;42.620;23.338;2022-09-25T09:12:04;4.15;;;3.75;;
17872;SDS011;36318;42.620;23.338;2022-09-25T09:14:32;5.57;;;3.80;;
17872;SDS011;36318;42.620;23.338;2022-09-25T09:17:02;6.97;;;3.08;;
17872;SDS011;36318;42.620;23.338;2022-09-25T09:19:30;3.43;;;3.03;;
17872;SDS011;36318;42.620;23.338;2022-09-25T09:22:00;8.20;;;4.00;;
17872;SDS011;36318;42.620;23.338;2022-09-25T09:24:32;7.60;;;3.70;;
17872;SDS011;36318;42.620;23.338;2022-09-25T09:27:04;4.27;;;3.80;;
17872;SDS011;36318;42.620;23.338;2022-09-25T09:29:37;9.87;;;3.90;;
17872;SDS011;36318;42.620;23.338;2022-09-25T09:32:12;10.23;;;4.37;;
17872;SDS011;36318;42.620;23.338;2022-09-25T09:34:46;5.40;;;3.90;;
17872;SDS011;36318;42.620;23.338;2022-09-25T09:37:17;6.10;;;3.60;;
17872;SDS011;36318;42.620;23.338;2022-09-25T09:39:49;4.17;;;3.47;;
17872;SDS011;36318;42.620;23.338;2022-09-25T09:42:20;6.73;;;4.03;;
17872;SDS011;36318;42.620;23.338;2022-09-25T09:44:52;4.33;;;3.90;;
17872;SDS011;36318;42.620;23.338;2022-09-25T09:47:29;4.23;;;3.70;;
17872;SDS011;36318;42.620;23.338;2022-09-25T09:50:08;6.13;;;3.80;;
17872;SDS011;36318;42.620;23.338;2022-09-25T09:52:40;4.60;;;3.30;;
17872;SDS011;36318;42.620;23.338;2022-09-25T09:55:12;7.27;;;3.83;;
17872;SDS011;36318;42.620;23.338;2022-09-25T09:57:42;9.23;;;4.60;;
17872;SDS011;36318;42.620;23.338;2022-09-25T10:00:12;4.70;;;4.20;;
17872;SDS011;36318;42.620;23.338;2022-09-25T10:02:40;4.43;;;4.03;;
17872;SDS011;36318;42.620;23.338;2022-09-25T10:07:50;4.87;;;3.43;;
17872;SDS011;36318;42.620;23.338;2022-09-25T10:10:18;5.77;;;3.70;;
17872;SDS011;36318;42.620;23.338;2022-09-25T10:12:47;8.23;;;3.67;;
17872;SDS011;36318;42.620;23.338;2022-09-25T10:15:18;9.60;;;3.90;;
17872;SDS011;36318;42.620;23.338;2022-09-25T10:17:46;6.30;;;4.47;;
17872;SDS011;36318;42.620;23.338;2022-09-25T10:20:14;4.80;;;3.60;;
17872;SDS011;36318;42.620;23.338;2022-09-25T10:22:43;6.37;;;3.80;;
17872;SDS011;36318;42.620;23.338;2022-09-25T10:25:10;4.00;;;3.57;;
17872;SDS011;36318;42.620;23.338;2022-09-25T10:27:38;8.17;;;3.50;;
17872;SDS011;36318;42.620;23.338;2022-09-25T10:30:11;4.13;;;3.70;;
17872;SDS011;36318;42.620;23.338;2022-09-25T10:32:40;6.60;;;3.87;;
17872;SDS011;36318;42.620;23.338;2022-09-25T10:35:12;5.17;;;3.00;;
17872;SDS011;36318;42.620;23.338;2022-09-25T10:37:38;6.40;;;3.67;;
17872;SDS011;36318;42.620;23.338;2022-09-25T10:40:06;4.13;;;3.70;;
17872;SDS011;36318;42.620;23.338;2022-09-25T10:42:36;4.27;;;3.80;;
17872;SDS011;36318;42.620;23.338;2022-09-25T10:47:50;5.03;;;3.67;;
17872;SDS011;36318;42.620;23.338;2022-09-25T10:50:34;5.50;;;3.53;;
17872;SDS011;36318;42.620;23.338;2022-09-25T10:53:01;5.97;;;3.90;;
17872;SDS011;36318;42.620;23.338;2022-09-25T10:55:30;7.53;;;3.97;;
17872;SDS011;36318;42.620;23.338;2022-09-25T10:58:00;5.00;;;3.83;;
17872;SDS011;36318;42.620;23.338;2022-09-25T11:00:29;8.57;;;4.27;;
17872;SDS011;36318;42.620;23.338;2022-09-25T11:02:59;4.17;;;3.70;;
17872;SDS011;36318;42.620;23.338;2022-09-25T11:05:27;5.57;;;4.30;;
17872;SDS011;36318;42.620;23.338;2022-09-25T11:07:55;7.17;;;3.70;;
17872;SDS011;36318;42.620;23.338;2022-09-25T11:10:23;5.07;;;4.20;;
17872;SDS011;36318;42.620;23.338;2022-09-25T11:12:51;4.67;;;3.73;;
17872;SDS011;36318;42.620;23.338;2022-09-25T11:15:19;5.93;;;3.60;;
17872;SDS011;36318;42.620;23.338;2022-09-25T11:17:47;3.83;;;3.43;;
17872;SDS011;36318;42.620;23.338;2022-09-25T11:20:23;6.30;;;3.67;;
17872;SDS011;36318;42.620;23.338;2022-09-25T11:23:05;3.80;;;3.23;;
17872;SDS011;36318;42.620;23.338;2022-09-25T11:25:40;5.07;;;3.47;;
17872;SDS011;36318;42.620;23.338;2022-09-25T11:28:13;4.13;;;2.97;;
17872;SDS011;36318;42.620;23.338;2022-09-25T11:30:42;6.37;;;3.20;;
17872;SDS011;36318;42.620;23.338;2022-09-25T11:33:11;3.20;;;2.90;;
17872;SDS011;36318;42.620;23.338;2022-09-25T11:35:44;3.93;;;2.73;;
17872;SDS011;36318;42.620;23.338;2022-09-25T11:38:16;4.10;;;2.93;;
17872;SDS011;36318;42.620;23.338;2022-09-25T11:41:05;5.17;;;3.10;;
17872;SDS011;36318;42.620;23.338;2022-09-25T11:43:49;5.50;;;3.13;;
17872;SDS011;36318;42.620;23.338;2022-09-25T11:46:20;3.17;;;2.53;;
17872;SDS011;36318;42.620;23.338;2022-09-25T11:48:51;3.20;;;2.90;;
17872;SDS011;36318;42.620;23.338;2022-09-25T11:51:24;5.07;;;2.73;;
17872;SDS011;36318;42.620;23.338;2022-09-25T11:54:02;5.60;;;2.47;;
17872;SDS011;36318;42.620;23.338;2022-09-25T11:56:33;3.03;;;2.70;;
17872;SDS011;36318;42.620;23.338;2022-09-25T11:59:05;4.37;;;2.77;;
17872;SDS011;36318;42.620;23.338;2022-09-25T12:01:43;6.43;;;2.80;;
17872;SDS011;36318;42.620;23.338;2022-09-25T12:07:13;5.23;;;2.70;;
17872;SDS011;36318;42.620;23.338;2022-09-25T12:09:51;4.73;;;3.20;;
17872;SDS011;36318;42.620;23.338;2022-09-25T12:12:23;6.67;;;2.47;;
17872;SDS011;36318;42.620;23.338;2022-09-25T12:14:56;2.53;;;2.33;;
17872;SDS011;36318;42.620;23.338;2022-09-25T12:17:26;4.90;;;2.87;;
17872;SDS011;36318;42.620;23.338;2022-09-25T12:19:57;6.45;;;2.58;;
17872;SDS011;36318;42.620;23.338;2022-09-25T12:22:43;5.70;;;3.10;;
17872;SDS011;36318;42.620;23.338;2022-09-25T12:25:16;4.50;;;2.80;;
17872;SDS011;36318;42.620;23.338;2022-09-25T12:27:45;4.65;;;2.80;;
17872;SDS011;36318;42.620;23.338;2022-09-25T12:30:15;2.90;;;2.50;;
17872;SDS011;36318;42.620;23.338;2022-09-25T12:32:52;5.13;;;3.10;;
17872;SDS011;36318;42.620;23.338;2022-09-25T12:35:24;3.78;;;2.90;;
17872;SDS011;36318;42.620;23.338;2022-09-25T12:37:53;3.67;;;2.75;;
17872;SDS011;36318;42.620;23.338;2022-09-25T12:40:23;3.55;;;2.85;;
17872;SDS011;36318;42.620;23.338;2022-09-25T12:42:53;4.43;;;2.60;;
17872;SDS011;36318;42.620;23.338;2022-09-25T12:45:22;4.70;;;2.40;;
17872;SDS011;36318;42.620;23.338;2022-09-25T12:47:57;4.57;;;2.53;;
17872;SDS011;36318;42.620;23.338;2022-09-25T12:50:27;3.85;;;2.55;;
17872;SDS011;36318;42.620;23.338;2022-09-25T12:52:59;4.50;;;2.53;;
17872;SDS011;36318;42.620;23.338;2022-09-25T12:55:28;2.65;;;2.45;;
17872;SDS011;36318;42.620;23.338;2022-09-25T12:57:59;2.95;;;2.65;;
17872;SDS011;36318;42.620;23.338;2022-09-25T13:00:31;4.20;;;2.30;;
17872;SDS011;36318;42.620;23.338;2022-09-25T13:02:59;6.75;;;2.83;;
17872;SDS011;36318;42.620;23.338;2022-09-25T13:05:28;1.98;;;1.88;;
17872;SDS011;36318;42.620;23.338;2022-09-25T13:07:59;3.65;;;2.78;;
17872;SDS011;36318;42.620;23.338;2022-09-25T13:10:31;4.70;;;2.28;;
17872;SDS011;36318;42.620;23.338;2022-09-25T13:12:59;2.25;;;2.05;;
17872;SDS011;36318;42.620;23.338;2022-09-25T13:15:27;6.38;;;2.75;;
17872;SDS011;36318;42.620;23.338;2022-09-25T13:17:53;4.07;;;2.67;;
17872;SDS011;36318;42.620;23.338;2022-09-25T13:20:46;2.50;;;2.30;;
17872;SDS011;36318;42.620;23.338;2022-09-25T13:23:14;2.83;;;2.50;;
17872;SDS011;36318;42.620;23.338;2022-09-25T13:25:41;2.63;;;2.42;;
17872;SDS011;36318;42.620;23.338;2022-09-25T13:28:12;4.70;;;2.67;;
17872;SDS011;36318;42.620;23.338;2022-09-25T13:30:55;3.08;;;2.55;;
17872;SDS011;36318;42.620;23.338;2022-09-25T13:33:22;2.55;;;2.30;;
17872;SDS011;36318;42.620;23.338;2022-09-25T13:35:48;4.15;;;2.55;;
17872;SDS011;36318;42.620;23.338;2022-09-25T13:38:28;8.50;;;2.85;;
17872;SDS011;36318;42.620;23.338;2022-09-25T13:41:12;4.95;;;2.22;;
17872;SDS011;36318;42.620;23.338;2022-09-25T13:43:39;5.15;;;2.72;;
17872;SDS011;36318;42.620;23.338;2022-09-25T13:46:21;2.90;;;2.30;;
17872;SDS011;36318;42.620;23.338;2022-09-25T13:48:49;3.42;;;2.55;;
17872;SDS011;36318;42.620;23.338;2022-09-25T13:51:25;3.67;;;2.15;;
17872;SDS011;36318;42.620;23.338;2022-09-25T13:53:54;2.50;;;2.30;;
17872;SDS011;36318;42.620;23.338;2022-09-25T13:56:24;14.88;;;7.57;;
17872;SDS011;36318;42.620;23.338;2022-09-25T13:59:01;9.05;;;5.55;;
17872;SDS011;36318;42.620;23.338;2022-09-25T14:01:32;4.93;;;3.10;;
17872;SDS011;36318;42.620;23.338;2022-09-25T14:03:59;2.60;;;2.40;;
17872;SDS011;36318;42.620;23.338;2022-09-25T14:06:28;2.85;;;2.58;;
17872;SDS011;36318;42.620;23.338;2022-09-25T14:08:59;8.32;;;6.15;;
17872;SDS011;36318;42.620;23.338;2022-09-25T14:11:29;6.50;;;3.55;;
17872;SDS011;36318;42.620;23.338;2022-09-25T14:13:57;5.80;;;3.20;;
17872;SDS011;36318;42.620;23.338;2022-09-25T14:16:27;5.85;;;3.92;;
17872;SDS011;36318;42.620;23.338;2022-09-25T14:18:55;14.02;;;7.18;;
17872;SDS011;36318;42.620;23.338;2022-09-25T14:21:23;16.67;;;10.80;;
17872;SDS011;36318;42.620;23.338;2022-09-25T14:23:51;4.38;;;2.72;;
17872;SDS011;36318;42.620;23.338;2022-09-25T14:26:19;9.00;;;6.82;;
17872;SDS011;36318;42.620;23.338;2022-09-25T14:28:48;9.52;;;6.85;;
17872;SDS011;36318;42.620;23.338;2022-09-25T14:31:18;14.95;;;7.13;;
17872;SDS011;36318;42.620;23.338;2022-09-25T14:33:54;3.97;;;3.20;;
17872;SDS011;36318;42.620;23.338;2022-09-25T14:36:24;7.60;;;3.95;;
17872;SDS011;36318;42.620;23.338;2022-09-25T14:39:01;3.80;;;3.10;;
17872;SDS011;36318;42.620;23.338;2022-09-25T14:44:34;13.48;;;8.23;;
17872;SDS011;36318;42.620;23.338;2022-09-25T14:47:04;6.38;;;5.63;;
17872;SDS011;36318;42.620;23.338;2022-09-25T14:49:34;2.95;;;2.63;;
17872;SDS011;36318;42.620;23.338;2022-09-25T14:52:03;2.40;;;2.10;;
17872;SDS011;36318;42.620;23.338;2022-09-25T14:54:31;3.92;;;1.77;;
17872;SDS011;36318;42.620;23.338;2022-09-25T14:57:00;5.90;;;2.00;;
17872;SDS011;36318;42.620;23.338;2022-09-25T14:59:28;3.28;;;1.88;;
17872;SDS011;36318;42.620;23.338;2022-09-25T15:01:58;2.92;;;2.03;;